createdAt,value
2023-01-02T00:01:16.226Z,67.04
2023-01-02T00:03:44.288Z,66.96
2023-01-02T00:06:12.449Z,67.17
2023-01-02T00:08:40.440Z,67.14
2023-01-02T00:11:08.437Z,67.23
2023-01-02T00:13:36.354Z,67.16
2023-01-02T00:16:04.644Z,67.27
2023-01-02T00:18:32.657Z,67.32
2023-01-02T00:21:07.215Z,67.39
2023-01-02T00:23:35.577Z,67.25
2023-01-02T00:26:03.503Z,67.43
2023-01-02T00:28:32.032Z,67.62
2023-01-02T00:31:11.725Z,67.62
2023-01-02T00:33:39.991Z,67.67
2023-01-02T00:36:12.882Z,67.60
2023-01-02T00:38:41.270Z,67.70
2023-01-02T00:41:09.952Z,67.84
2023-01-02T00:43:38.156Z,67.84
2023-01-02T00:46:11.445Z,68.00
2023-01-02T00:48:40.744Z,67.90
2023-01-02T00:51:08.896Z,67.88
2023-01-02T00:53:37.302Z,67.87
2023-01-02T00:56:06.165Z,68.04
2023-01-02T00:58:34.464Z,68.08
2023-01-02T01:01:03.051Z,68.00
2023-01-02T01:03:31.705Z,68.02
2023-01-02T01:05:59.533Z,67.99
2023-01-02T01:08:27.405Z,67.91
2023-01-02T01:10:55.520Z,68.07
2023-01-02T01:13:23.366Z,68.13
2023-01-02T01:15:51.356Z,67.97
2023-01-02T01:18:19.436Z,68.16
2023-01-02T01:20:47.281Z,68.12
2023-01-02T01:23:15.287Z,67.98
2023-01-02T01:25:43.480Z,68.04
2023-01-02T01:28:11.435Z,68.15
2023-01-02T01:30:39.358Z,68.14
2023-01-02T01:33:07.508Z,68.19
2023-01-02T01:35:35.406Z,68.29
2023-01-02T01:38:03.283Z,68.21
2023-01-02T01:40:38.556Z,68.22
2023-01-02T01:43:14.064Z,68.14
2023-01-02T01:45:44.844Z,68.15
2023-01-02T01:48:16.771Z,68.04
2023-01-02T01:50:45.323Z,68.07
2023-01-02T01:53:22.077Z,68.05
2023-01-02T01:55:58.543Z,68.01
2023-01-02T01:58:36.193Z,68.08
2023-01-02T02:01:04.594Z,67.96
2023-01-02T02:03:35.209Z,68.04
2023-01-02T02:06:04.405Z,67.94
2023-01-02T02:08:55.817Z,67.85
2023-01-02T02:11:23.797Z,67.86
2023-01-02T02:13:52.198Z,67.79
2023-01-02T02:16:36.867Z,67.71
2023-01-02T02:19:33.195Z,67.72
2023-01-02T02:22:20.183Z,67.69
2023-01-02T02:25:12.762Z,67.76
2023-01-02T02:28:22.558Z,67.66
2023-01-02T02:30:50.743Z,67.67
2023-01-02T02:33:43.479Z,67.53
2023-01-02T02:36:27.155Z,67.64
2023-01-02T02:39:06.404Z,67.56
2023-01-02T02:41:42.320Z,67.78
2023-01-02T02:44:13.225Z,67.60
2023-01-02T02:47:04.661Z,67.47
2023-01-02T02:50:02.638Z,67.64
2023-01-02T02:52:44.083Z,67.85
2023-01-02T02:55:17.273Z,67.72
2023-01-02T02:57:46.774Z,67.84
2023-01-02T03:00:18.999Z,67.72
2023-01-02T03:02:47.345Z,67.80
2023-01-02T03:05:24.414Z,68.01
2023-01-02T03:08:16.378Z,68.10
2023-01-02T03:10:52.705Z,67.94
2023-01-02T03:13:27.195Z,68.07
2023-01-02T03:16:17.084Z,67.92
2023-01-02T03:19:09.540Z,67.89
2023-01-02T03:21:58.775Z,67.97
2023-01-02T03:24:28.535Z,67.98
2023-01-02T03:27:04.548Z,67.94
2023-01-02T03:29:49.560Z,67.95
2023-01-02T03:32:23.537Z,68.15
2023-01-02T03:34:52.904Z,68.21
2023-01-02T03:37:25.721Z,68.13
2023-01-02T03:39:57.833Z,68.33
2023-01-02T03:42:30.208Z,68.25
2023-01-02T03:45:00.508Z,68.11
2023-01-02T03:48:06.402Z,68.11
2023-01-02T03:50:42.594Z,68.12
2023-01-02T03:53:10.946Z,68.28
2023-01-02T03:55:43.522Z,68.27
2023-01-02T03:58:21.195Z,68.36
2023-01-02T04:00:56.330Z,68.27
2023-01-02T04:03:37.202Z,68.49
2023-01-02T04:06:15.049Z,68.51
2023-01-02T04:08:56.763Z,68.40
2023-01-02T04:11:26.540Z,68.60
2023-01-02T04:13:59.924Z,68.58
2023-01-02T04:16:31.345Z,68.58
2023-01-02T04:19:05.678Z,68.42
2023-01-02T04:21:38.795Z,68.55
2023-01-02T04:24:21.764Z,68.50
2023-01-02T04:27:14.439Z,68.47
2023-01-02T04:29:42.515Z,68.55
2023-01-02T04:32:35.337Z,68.76
2023-01-02T04:35:08.557Z,68.91
2023-01-02T04:37:39.715Z,69.00
2023-01-02T04:40:29.806Z,69.04
2023-01-02T04:42:57.834Z,69.05
2023-01-02T04:45:25.873Z,69.16
2023-01-02T04:47:53.763Z,69.32
2023-01-02T04:50:21.857Z,69.44
2023-01-02T04:52:50.068Z,69.75
2023-01-02T04:55:17.932Z,70.00
2023-01-02T04:57:45.986Z,70.30
2023-01-02T05:00:14.316Z,70.59
2023-01-02T05:02:42.313Z,71.05
2023-01-02T05:05:11.125Z,71.25
2023-01-02T05:07:39.873Z,71.69
2023-01-02T05:10:08.759Z,71.75
2023-01-02T05:12:39.378Z,71.77
2023-01-02T05:15:09.971Z,71.89
2023-01-02T05:17:40.498Z,72.01
2023-01-02T05:20:12.047Z,72.05
2023-01-02T05:23:02.956Z,72.09
2023-01-02T05:25:35.979Z,72.06
2023-01-02T05:28:04.739Z,72.05
2023-01-02T05:30:32.916Z,72.14
2023-01-02T05:33:01.044Z,71.98
2023-01-02T05:35:33.110Z,72.13
2023-01-02T05:38:02.102Z,72.22
2023-01-02T05:40:30.246Z,72.08
2023-01-02T05:42:59.196Z,71.83
2023-01-02T05:45:27.281Z,72.03
2023-01-02T05:47:55.503Z,71.93
2023-01-02T05:50:23.472Z,71.93
2023-01-02T05:52:51.560Z,71.92
2023-01-02T05:55:19.685Z,71.90
2023-01-02T05:57:47.602Z,71.98
2023-01-02T06:00:16.518Z,71.70
2023-01-02T06:02:48.498Z,71.96
2023-01-02T06:05:17.311Z,71.91
2023-01-02T06:07:45.375Z,71.91
2023-01-02T06:10:13.391Z,71.86
2023-01-02T06:12:41.346Z,71.74
2023-01-02T06:15:09.725Z,71.93
2023-01-02T06:17:37.928Z,71.89
2023-01-02T06:20:06.564Z,71.92
2023-01-02T06:22:34.571Z,71.91
2023-01-02T06:25:02.725Z,71.83
2023-01-02T06:27:32.973Z,71.93
2023-01-02T06:30:01.103Z,71.87
2023-01-02T06:32:29.678Z,72.02
2023-01-02T06:34:57.618Z,71.93
2023-01-02T06:37:25.748Z,72.09
2023-01-02T06:39:53.669Z,71.98
2023-01-02T06:42:21.657Z,72.02
2023-01-02T06:44:49.638Z,72.19
2023-01-02T06:47:17.642Z,72.21
2023-01-02T06:49:45.538Z,72.27
2023-01-02T06:52:13.591Z,72.48
2023-01-02T06:54:41.648Z,72.50
2023-01-02T06:57:09.574Z,72.58
2023-01-02T06:59:37.705Z,72.79
2023-01-02T07:02:06.225Z,72.96
2023-01-02T07:04:34.224Z,73.12
2023-01-02T07:07:02.395Z,73.25
2023-01-02T07:09:31.777Z,73.53
2023-01-02T07:11:59.752Z,73.46
2023-01-02T07:14:29.004Z,73.64
2023-01-02T07:16:56.943Z,73.55
2023-01-02T07:19:25.052Z,73.61
2023-01-02T07:21:53.187Z,73.77
2023-01-02T07:24:21.122Z,74.11
2023-01-02T07:26:49.735Z,73.67
2023-01-02T07:29:17.811Z,73.84
2023-01-02T07:31:45.741Z,73.87
2023-01-02T07:34:13.769Z,74.00
2023-01-02T07:36:41.830Z,73.92
2023-01-02T07:39:09.857Z,73.87
2023-01-02T07:41:38.033Z,73.90
2023-01-02T07:44:16.471Z,73.89
2023-01-02T07:46:44.666Z,73.77
2023-01-02T07:49:12.961Z,73.74
2023-01-02T07:51:41.111Z,73.58
2023-01-02T07:54:09.058Z,73.53
2023-01-02T07:56:37.043Z,73.54
2023-01-02T07:59:05.312Z,73.41
2023-01-02T08:01:33.277Z,73.49
2023-01-02T08:04:01.328Z,73.54
2023-01-02T08:06:29.633Z,73.44
2023-01-02T08:08:58.592Z,73.32
2023-01-02T08:11:28.799Z,73.29
2023-01-02T08:13:57.244Z,73.25
2023-01-02T08:16:25.264Z,73.25
2023-01-02T08:18:55.782Z,73.11
2023-01-02T08:21:26.305Z,72.91
2023-01-02T08:23:54.323Z,72.88
2023-01-02T08:26:23.455Z,72.77
2023-01-02T08:28:51.634Z,72.55
2023-01-02T08:31:21.893Z,72.41
2023-01-02T08:33:49.990Z,72.32
2023-01-02T08:36:20.072Z,72.14
2023-01-02T08:38:48.082Z,71.98
2023-01-02T08:41:30.226Z,72.02
2023-01-02T08:43:58.459Z,71.89
2023-01-02T08:46:26.939Z,71.86
2023-01-02T08:48:55.097Z,71.70
2023-01-02T08:51:23.182Z,71.48
2023-01-02T08:53:51.484Z,71.24
2023-01-02T08:56:31.357Z,70.92
2023-01-02T08:59:08.646Z,70.69
2023-01-02T09:01:36.986Z,70.70
2023-01-02T09:04:11.932Z,70.76
2023-01-02T09:06:42.575Z,70.26
2023-01-02T09:09:13.145Z,70.21
2023-01-02T09:11:51.086Z,70.15
2023-01-02T09:14:21.887Z,70.09
2023-01-02T09:16:51.337Z,70.08
2023-01-02T09:19:19.324Z,69.75
2023-01-02T09:21:47.829Z,69.52
2023-01-02T09:24:15.871Z,69.65
2023-01-02T09:26:44.001Z,69.79
2023-01-02T09:29:13.536Z,69.66
2023-01-02T09:31:41.950Z,69.42
2023-01-02T09:34:09.931Z,69.34
2023-01-02T09:36:38.475Z,69.11
2023-01-02T09:39:06.521Z,69.02
2023-01-02T09:41:44.504Z,68.78
2023-01-02T09:44:26.950Z,68.33
2023-01-02T09:47:08.256Z,68.38
2023-01-02T09:49:53.206Z,67.95
2023-01-02T09:52:43.223Z,67.80
2023-01-02T09:55:16.739Z,67.79
2023-01-02T09:58:20.262Z,67.50
2023-01-02T10:00:50.814Z,67.42
2023-01-02T10:03:45.857Z,66.93
2023-01-02T10:06:32.416Z,66.62
2023-01-02T10:09:06.003Z,66.47
2023-01-02T10:11:34.120Z,66.54
2023-01-02T10:14:19.903Z,66.52
2023-01-02T10:16:55.728Z,66.16
2023-01-02T10:19:38.212Z,66.33
2023-01-02T10:22:09.749Z,66.07
2023-01-02T10:24:46.424Z,65.64
2023-01-02T10:27:19.582Z,65.58
2023-01-02T10:30:15.861Z,65.23
2023-01-02T10:32:49.266Z,65.41
2023-01-02T10:35:39.353Z,65.39
2023-01-02T10:38:13.189Z,65.35
2023-01-02T10:40:44.867Z,65.34
2023-01-02T10:43:14.394Z,65.51
2023-01-02T10:45:42.800Z,65.21
2023-01-02T10:48:11.850Z,65.30
2023-01-02T10:50:48.629Z,64.87
2023-01-02T10:53:39.509Z,64.58
2023-01-02T10:56:18.481Z,64.67
2023-01-02T10:58:49.048Z,64.38
2023-01-02T11:01:20.505Z,64.35
2023-01-02T11:04:10.909Z,64.31
2023-01-02T11:06:55.832Z,64.21
2023-01-02T11:09:33.500Z,64.31
2023-01-02T11:12:07.857Z,64.46
2023-01-02T11:14:37.685Z,64.76
2023-01-02T11:17:14.293Z,64.47
2023-01-02T11:19:49.132Z,64.61
2023-01-02T11:22:20.494Z,64.90
2023-01-02T11:25:00.386Z,64.75
2023-01-02T11:27:33.814Z,64.87
2023-01-02T11:30:02.823Z,64.97
2023-01-02T11:32:38.893Z,65.00
2023-01-02T11:35:34.366Z,64.88
2023-01-02T11:38:02.661Z,64.75
2023-01-02T11:40:32.533Z,64.71
2023-01-02T11:43:25.762Z,64.90
2023-01-02T11:45:54.898Z,64.78
2023-01-02T11:48:24.409Z,64.71
2023-01-02T11:50:53.147Z,64.47
2023-01-02T11:53:29.339Z,64.71
2023-01-02T11:56:04.701Z,64.68
2023-01-02T11:58:48.053Z,64.64
2023-01-02T12:01:22.324Z,64.67
2023-01-02T12:03:50.676Z,64.64
2023-01-02T12:06:20.200Z,64.72
2023-01-02T12:09:02.853Z,64.78
2023-01-02T12:11:30.893Z,64.75
2023-01-02T12:14:28.145Z,64.67
2023-01-02T12:17:04.909Z,64.49
2023-01-02T12:19:49.437Z,63.83
2023-01-02T12:22:45.567Z,63.79
2023-01-02T12:25:37.886Z,63.03
2023-01-02T12:28:47.025Z,62.66
2023-01-02T12:31:15.021Z,62.71
2023-01-02T12:33:54.237Z,62.27
2023-01-02T12:36:36.384Z,62.00
2023-01-02T12:39:40.193Z,61.56
2023-01-02T12:42:33.835Z,62.09
2023-01-02T12:45:05.893Z,61.70
2023-01-02T12:47:57.318Z,61.67
2023-01-02T12:50:40.613Z,61.24
2023-01-02T12:53:33.813Z,60.92
2023-01-02T12:56:14.060Z,61.00
2023-01-02T12:59:11.428Z,60.48
2023-01-02T13:01:55.797Z,60.58
2023-01-02T13:04:48.704Z,60.58
2023-01-02T13:07:40.645Z,59.89
2023-01-02T13:10:16.845Z,60.07
2023-01-02T13:12:47.687Z,59.76
2023-01-02T13:15:23.842Z,60.07
2023-01-02T13:18:28.766Z,59.97
2023-01-02T13:21:13.025Z,59.63
2023-01-02T13:23:45.185Z,59.74
2023-01-02T13:26:16.824Z,59.92
2023-01-02T13:29:22.140Z,59.70
2023-01-02T13:31:57.478Z,59.98
2023-01-02T13:34:32.502Z,60.19
2023-01-02T13:37:16.025Z,60.29
2023-01-02T13:39:44.120Z,60.69
2023-01-02T13:42:42.326Z,60.36
2023-01-02T13:45:14.914Z,60.25
2023-01-02T13:47:49.858Z,60.06
2023-01-02T13:50:33.960Z,60.54
2023-01-02T13:53:09.491Z,60.69
2023-01-02T13:55:40.683Z,60.66
2023-01-02T13:58:18.417Z,60.66
2023-01-02T14:00:54.689Z,60.89
2023-01-02T14:03:23.804Z,61.06
2023-01-02T14:06:01.368Z,60.99
2023-01-02T14:08:35.690Z,60.78
2023-01-02T14:11:15.958Z,61.09
2023-01-02T14:13:49.456Z,60.95
2023-01-02T14:16:23.491Z,60.95
2023-01-02T14:19:13.419Z,61.09
2023-01-02T14:21:59.576Z,61.02
2023-01-02T14:24:29.560Z,61.21
2023-01-02T14:27:02.266Z,61.34
2023-01-02T14:29:32.264Z,61.20
2023-01-02T14:32:05.790Z,61.27
2023-01-02T14:34:34.878Z,61.37
2023-01-02T14:37:03.254Z,61.43
2023-01-02T14:39:37.168Z,61.48
2023-01-02T14:42:50.877Z,61.58
2023-01-02T14:45:24.030Z,61.60
2023-01-02T14:47:57.944Z,61.63
2023-01-02T14:50:31.102Z,61.82
2023-01-02T14:53:02.529Z,61.82
2023-01-02T14:55:41.343Z,61.92
2023-01-02T14:58:23.947Z,61.91
2023-01-02T15:00:52.939Z,61.96
2023-01-02T15:03:40.872Z,61.96
2023-01-02T15:06:19.240Z,62.13
2023-01-02T15:08:51.796Z,62.38
2023-01-02T15:11:42.053Z,62.44
2023-01-02T15:14:17.814Z,62.47
2023-01-02T15:16:57.194Z,62.54
2023-01-02T15:19:29.775Z,62.58
2023-01-02T15:21:58.927Z,62.72
2023-01-02T15:24:34.278Z,62.67
2023-01-02T15:27:22.864Z,62.78
2023-01-02T15:29:53.898Z,62.98
2023-01-02T15:32:32.126Z,63.01
2023-01-02T15:35:10.223Z,63.06
2023-01-02T15:37:45.248Z,63.13
2023-01-02T15:40:36.210Z,63.30
2023-01-02T15:43:25.957Z,63.35
2023-01-02T15:45:54.445Z,63.34
2023-01-02T15:48:27.602Z,63.59
2023-01-02T15:50:58.225Z,63.57
2023-01-02T15:53:30.766Z,63.67
2023-01-02T15:55:59.228Z,63.64
2023-01-02T15:58:29.491Z,63.75
2023-01-02T16:01:18.598Z,63.86
2023-01-02T16:04:04.578Z,63.89
2023-01-02T16:06:41.481Z,63.92
2023-01-02T16:09:22.690Z,64.06
2023-01-02T16:11:54.844Z,64.01
2023-01-02T16:14:35.347Z,64.03
2023-01-02T16:17:28.442Z,64.21
2023-01-02T16:20:00.335Z,64.40
2023-01-02T16:22:31.418Z,64.27
2023-01-02T16:25:12.005Z,64.47
2023-01-02T16:28:02.680Z,64.59
2023-01-02T16:30:33.903Z,64.72
2023-01-02T16:33:20.578Z,64.72
2023-01-02T16:36:00.932Z,64.84
2023-01-02T16:38:30.767Z,64.95
2023-01-02T16:41:03.478Z,65.13
2023-01-02T16:43:36.772Z,65.13
2023-01-02T16:46:14.761Z,65.11
2023-01-02T16:48:44.201Z,65.21
2023-01-02T16:51:14.758Z,65.43
2023-01-02T16:53:45.582Z,65.46
2023-01-02T16:56:21.028Z,65.64
2023-01-02T16:58:51.022Z,65.79
2023-01-02T17:01:20.881Z,65.80
2023-01-02T17:03:48.987Z,65.94
2023-01-02T17:06:21.308Z,66.07
2023-01-02T17:08:49.360Z,66.03
2023-01-02T17:11:23.573Z,66.07
2023-01-02T17:13:52.435Z,66.42
2023-01-02T17:16:21.255Z,66.28
2023-01-02T17:18:50.174Z,66.57
2023-01-02T17:21:18.839Z,66.59
2023-01-02T17:23:47.700Z,66.70
2023-01-02T17:26:16.118Z,66.89
2023-01-02T17:28:44.731Z,66.93
2023-01-02T17:31:18.909Z,67.07
2023-01-02T17:33:50.911Z,67.33
2023-01-02T17:36:18.903Z,67.23
2023-01-02T17:38:48.541Z,67.35
2023-01-02T17:41:16.696Z,67.58
2023-01-02T17:44:01.789Z,67.54
2023-01-02T17:49:21.262Z,67.83
2023-01-02T17:51:49.502Z,67.95
2023-01-02T17:54:17.658Z,67.87
2023-01-02T17:56:45.625Z,68.23
2023-01-02T17:59:14.210Z,67.97
2023-01-02T18:01:42.368Z,68.06
2023-01-02T18:04:10.456Z,68.29
2023-01-02T18:06:38.847Z,68.50
2023-01-02T18:09:07.384Z,68.53
2023-01-02T18:11:35.711Z,68.55
2023-01-02T18:14:14.159Z,68.59
2023-01-02T18:16:43.119Z,68.76
2023-01-02T18:19:20.374Z,68.75
2023-01-02T18:21:48.767Z,68.82
2023-01-02T18:24:35.018Z,68.90
2023-01-02T18:27:24.894Z,69.11
2023-01-02T18:30:16.603Z,68.99
2023-01-02T18:32:45.487Z,69.08
2023-01-02T18:35:54.761Z,69.25
2023-01-02T18:38:20.109Z,69.43
2023-01-02T18:40:48.176Z,69.41
2023-01-02T18:43:38.370Z,69.57
2023-01-02T18:46:23.795Z,69.56
2023-01-02T18:48:55.875Z,69.64
2023-01-02T18:51:24.754Z,69.60
2023-01-02T18:53:57.285Z,69.75
2023-01-02T18:56:29.544Z,69.80
2023-01-02T18:59:16.109Z,69.95
2023-01-02T19:01:50.749Z,69.79
2023-01-02T19:04:28.355Z,69.74
2023-01-02T19:07:01.863Z,69.94
2023-01-02T19:09:33.813Z,69.75
2023-01-02T19:12:33.025Z,69.90
2023-01-02T19:15:22.704Z,69.77
2023-01-02T19:17:50.689Z,69.80
2023-01-02T19:20:18.813Z,69.80
2023-01-02T19:22:46.888Z,69.68
2023-01-02T19:25:22.186Z,69.69
2023-01-02T19:27:52.747Z,69.71
2023-01-02T19:30:35.935Z,69.80
2023-01-02T19:33:43.800Z,69.74
2023-01-02T19:36:21.755Z,69.81
2023-01-02T19:38:52.516Z,69.92
2023-01-02T19:41:40.515Z,69.84
2023-01-02T19:44:08.850Z,69.76
2023-01-02T19:46:36.979Z,69.88
2023-01-02T19:49:05.103Z,69.70
2023-01-02T19:51:33.233Z,69.77
2023-01-02T19:54:04.282Z,69.70
2023-01-02T19:56:32.568Z,69.73
2023-01-02T19:59:00.999Z,69.67
2023-01-02T20:01:29.165Z,69.55
2023-01-02T20:03:57.795Z,69.63
2023-01-02T20:06:26.238Z,69.74
2023-01-02T20:08:54.568Z,69.75
2023-01-02T20:11:41.035Z,69.71
2023-01-02T20:14:09.049Z,69.79
2023-01-02T20:16:37.065Z,69.74
2023-01-02T20:19:05.318Z,69.68
2023-01-02T20:21:33.274Z,69.74
2023-01-02T20:24:01.474Z,69.74
2023-01-02T20:26:30.159Z,69.70
2023-01-02T20:28:58.145Z,69.75
2023-01-02T20:31:26.180Z,69.86
2023-01-02T20:33:54.360Z,69.80
2023-01-02T20:36:22.381Z,69.78
2023-01-02T20:38:50.329Z,70.00
2023-01-02T20:41:18.508Z,70.02
2023-01-02T20:43:46.751Z,70.07
2023-01-02T20:46:14.798Z,70.07
2023-01-02T20:48:43.041Z,70.20
2023-01-02T20:51:14.703Z,70.25
2023-01-02T20:53:42.610Z,70.30
2023-01-02T20:56:11.036Z,70.15
2023-01-02T20:58:39.093Z,70.27
2023-01-02T21:01:06.985Z,70.31
2023-01-02T21:03:35.368Z,70.43
2023-01-02T21:06:03.531Z,70.43
2023-01-02T21:08:32.129Z,70.43
2023-01-02T21:11:00.175Z,70.35
2023-01-02T21:13:28.225Z,70.61
2023-01-02T21:15:58.035Z,70.62
2023-01-02T21:18:27.852Z,70.71
2023-01-02T21:20:58.266Z,70.68
2023-01-02T21:23:28.528Z,70.79
2023-01-02T21:25:57.175Z,70.71
2023-01-02T21:28:26.045Z,70.73
2023-01-02T21:30:55.054Z,70.94
2023-01-02T21:33:25.126Z,70.96
2023-01-02T21:35:55.332Z,70.88
2023-01-02T21:38:24.166Z,70.96
2023-01-02T21:40:53.238Z,71.00
2023-01-02T21:43:22.027Z,70.91
2023-01-02T21:45:50.508Z,70.93
2023-01-02T21:48:18.394Z,70.80
2023-01-02T21:50:46.407Z,70.96
2023-01-02T21:53:16.876Z,70.85
2023-01-02T21:55:44.881Z,70.91
2023-01-02T21:58:14.374Z,70.89
2023-01-02T22:00:43.618Z,70.82
2023-01-02T22:03:12.065Z,70.91
2023-01-02T22:05:40.509Z,70.85
2023-01-02T22:08:08.558Z,70.84
2023-01-02T22:10:38.493Z,70.94
2023-01-02T22:13:19.561Z,70.82
2023-01-02T22:15:47.534Z,70.86
2023-01-02T22:18:15.648Z,70.74
2023-01-02T22:20:43.692Z,70.78
2023-01-02T22:23:11.587Z,70.72
2023-01-02T22:25:39.538Z,70.83
2023-01-02T22:28:07.508Z,70.81
2023-01-02T22:30:35.585Z,70.83
2023-01-02T22:33:04.541Z,70.68
2023-01-02T22:35:33.911Z,70.76
2023-01-02T22:38:01.806Z,70.82
2023-01-02T22:40:29.701Z,70.78
2023-01-02T22:43:00.893Z,70.78
2023-01-02T22:45:34.138Z,70.80
2023-01-02T22:48:06.200Z,70.77
2023-01-02T22:50:42.202Z,70.76
2023-01-02T22:53:20.905Z,70.78
2023-01-02T22:55:49.719Z,70.75
2023-01-02T22:58:18.512Z,70.88
2023-01-02T23:00:47.757Z,70.71
2023-01-02T23:03:17.134Z,70.79
2023-01-02T23:05:45.114Z,70.74
2023-01-02T23:08:14.470Z,70.68
2023-01-02T23:10:42.527Z,70.65
2023-01-02T23:13:10.517Z,70.79
2023-01-02T23:15:59.768Z,70.71
2023-01-02T23:18:51.680Z,70.71
2023-01-02T23:21:23.512Z,70.85
2023-01-02T23:23:52.273Z,70.68
2023-01-02T23:26:21.162Z,70.79
2023-01-02T23:29:06.455Z,70.68
2023-01-02T23:31:46.501Z,70.64
2023-01-02T23:34:17.167Z,70.45
2023-01-02T23:36:45.847Z,70.62
2023-01-02T23:39:16.692Z,70.53
2023-01-02T23:41:44.812Z,70.51
2023-01-02T23:44:14.034Z,70.51
2023-01-02T23:46:42.632Z,70.43
2023-01-02T23:49:11.444Z,70.46
2023-01-02T23:51:40.813Z,70.32
2023-01-02T23:54:11.211Z,70.45
2023-01-02T23:56:40.971Z,70.46
2023-01-02T23:59:11.857Z,70.37
